createdAt,value
2024-02-17T00:01:31.975Z,1.70
2024-02-17T00:04:01.437Z,1.80
2024-02-17T00:06:29.551Z,1.47
2024-02-17T00:08:57.711Z,1.50
2024-02-17T00:11:27.074Z,1.50
2024-02-17T00:13:55.179Z,1.63
2024-02-17T00:16:23.299Z,2.00
2024-02-17T00:18:51.429Z,1.40
2024-02-17T00:21:21.113Z,2.20
2024-02-17T00:23:49.122Z,2.50
2024-02-17T00:26:18.425Z,2.60
2024-02-17T00:28:46.481Z,1.60
2024-02-17T00:31:14.475Z,1.53
2024-02-17T00:33:42.586Z,1.40
2024-02-17T00:36:10.942Z,1.30
2024-02-17T00:38:40.338Z,1.33
2024-02-17T00:41:08.760Z,1.07
2024-02-17T00:43:36.753Z,1.00
2024-02-17T00:46:05.478Z,0.80
2024-02-17T00:48:34.110Z,0.83
2024-02-17T00:51:09.300Z,0.80
2024-02-17T00:53:43.961Z,0.80
2024-02-17T00:56:14.680Z,0.80
2024-02-17T00:58:42.867Z,1.00
2024-02-17T01:01:19.456Z,0.97
2024-02-17T01:03:54.073Z,1.20
2024-02-17T01:06:22.368Z,0.70
2024-02-17T01:08:54.605Z,1.70
2024-02-17T01:11:25.566Z,1.20
2024-02-17T01:13:53.787Z,1.80
2024-02-17T01:16:24.513Z,2.50
2024-02-17T01:18:52.939Z,1.87
2024-02-17T01:21:21.159Z,1.10
2024-02-17T01:23:49.206Z,0.70
2024-02-17T01:26:21.511Z,0.70
2024-02-17T01:28:51.454Z,0.60
2024-02-17T01:31:20.676Z,0.90
2024-02-17T01:33:51.347Z,0.57
2024-02-17T01:36:19.636Z,0.80
2024-02-17T01:38:48.198Z,1.23
2024-02-17T01:41:16.902Z,1.43
2024-02-17T01:43:46.270Z,0.93
2024-02-17T01:46:14.541Z,0.70
2024-02-17T01:48:43.743Z,0.47
2024-02-17T01:51:12.973Z,0.40
2024-02-17T01:53:42.499Z,0.90
2024-02-17T01:56:12.096Z,0.70
2024-02-17T01:58:40.538Z,0.80
2024-02-17T02:01:10.209Z,0.80
2024-02-17T02:03:40.564Z,0.87
2024-02-17T02:06:08.783Z,1.00
2024-02-17T02:08:36.842Z,1.07
2024-02-17T02:11:05.982Z,1.10
2024-02-17T02:13:34.101Z,1.53
2024-02-17T02:16:02.362Z,1.60
2024-02-17T02:18:32.033Z,1.53
2024-02-17T02:21:00.191Z,1.30
2024-02-17T02:23:28.342Z,1.27
2024-02-17T02:25:58.422Z,1.30
2024-02-17T02:28:26.661Z,1.63
2024-02-17T02:30:58.934Z,1.60
2024-02-17T02:33:27.202Z,1.63
2024-02-17T02:35:55.380Z,1.30
2024-02-17T02:38:23.378Z,1.30
2024-02-17T02:40:51.423Z,1.47
2024-02-17T02:43:21.260Z,1.80
2024-02-17T02:45:49.411Z,2.07
2024-02-17T02:48:17.678Z,2.53
2024-02-17T02:50:45.910Z,2.70
2024-02-17T02:53:14.015Z,2.77
2024-02-17T02:55:42.134Z,3.30
2024-02-17T02:58:10.253Z,3.47
2024-02-17T03:00:39.995Z,3.47
2024-02-17T03:03:08.142Z,3.20
2024-02-17T03:05:36.281Z,2.17
2024-02-17T03:08:04.427Z,2.00
2024-02-17T03:10:32.525Z,2.23
2024-02-17T03:13:00.982Z,2.23
2024-02-17T03:15:29.081Z,1.90
2024-02-17T03:18:17.918Z,1.30
2024-02-17T03:20:46.009Z,1.30
2024-02-17T03:23:14.106Z,1.07
2024-02-17T03:25:42.584Z,1.53
2024-02-17T03:28:10.637Z,1.70
2024-02-17T03:30:40.231Z,1.37
2024-02-17T03:33:11.047Z,1.17
2024-02-17T03:35:42.248Z,1.33
2024-02-17T03:38:10.374Z,1.00
2024-02-17T03:40:38.351Z,1.10
2024-02-17T03:43:06.604Z,1.07
2024-02-17T03:45:34.625Z,0.80
2024-02-17T03:48:03.310Z,0.80
2024-02-17T03:50:31.442Z,0.83
2024-02-17T03:53:00.894Z,1.30
2024-02-17T03:55:28.948Z,1.10
2024-02-17T03:57:57.456Z,0.80
2024-02-17T04:00:25.585Z,0.70
2024-02-17T04:02:53.661Z,0.70
2024-02-17T04:05:21.792Z,0.70
2024-02-17T04:07:49.970Z,0.70
2024-02-17T04:10:19.573Z,0.43
2024-02-17T04:12:47.692Z,0.50
2024-02-17T04:15:16.008Z,0.40
2024-02-17T04:17:45.516Z,0.50
2024-02-17T04:20:13.746Z,0.43
2024-02-17T04:22:41.898Z,0.40
2024-02-17T04:25:10.044Z,0.53
2024-02-17T04:27:39.994Z,0.40
2024-02-17T04:30:09.093Z,0.47
2024-02-17T04:32:37.220Z,0.60
2024-02-17T04:35:05.886Z,0.30
2024-02-17T04:37:34.064Z,0.47
2024-02-17T04:40:02.114Z,0.53
2024-02-17T04:42:30.131Z,0.60
2024-02-17T04:44:59.682Z,0.30
2024-02-17T04:47:27.707Z,0.40
2024-02-17T04:49:55.919Z,0.30
2024-02-17T04:52:23.948Z,0.30
2024-02-17T04:54:51.987Z,0.93
2024-02-17T04:57:19.992Z,0.20
2024-02-17T04:59:48.000Z,0.30
2024-02-17T05:02:17.368Z,0.33
2024-02-17T05:04:45.377Z,0.20
2024-02-17T05:07:14.194Z,0.30
2024-02-17T05:09:42.202Z,0.30
2024-02-17T05:12:10.818Z,0.30
2024-02-17T05:14:39.276Z,0.27
2024-02-17T05:17:07.246Z,0.30
2024-02-17T05:19:37.075Z,0.30
2024-02-17T05:22:05.685Z,0.20
2024-02-17T05:24:33.772Z,0.20
2024-02-17T05:27:01.902Z,0.13
2024-02-17T05:29:30.109Z,0.20
2024-02-17T05:31:58.160Z,0.30
2024-02-17T05:34:27.126Z,0.20
2024-02-17T05:36:58.039Z,0.40
2024-02-17T05:39:26.105Z,0.40
2024-02-17T05:41:54.654Z,0.30
2024-02-17T05:44:22.795Z,0.23
2024-02-17T05:46:50.779Z,0.40
2024-02-17T05:49:21.264Z,0.20
2024-02-17T05:51:49.330Z,0.40
2024-02-17T05:54:19.569Z,0.40
2024-02-17T05:56:47.995Z,0.40
2024-02-17T05:59:16.061Z,0.20
2024-02-17T06:01:44.392Z,0.40
2024-02-17T06:04:12.619Z,0.20
2024-02-17T06:06:40.758Z,0.30
2024-02-17T06:09:08.772Z,0.40
2024-02-17T06:11:39.104Z,0.30
2024-02-17T06:14:07.198Z,0.20
2024-02-17T06:16:37.145Z,0.40
2024-02-17T06:19:22.795Z,0.30
2024-02-17T06:21:50.902Z,0.20
2024-02-17T06:24:19.258Z,0.30
2024-02-17T06:26:48.619Z,0.40
2024-02-17T06:29:16.618Z,0.40
2024-02-17T06:31:45.215Z,0.47
2024-02-17T06:34:13.548Z,0.27
2024-02-17T06:36:44.034Z,0.30
2024-02-17T06:39:12.415Z,0.30
2024-02-17T06:41:40.617Z,0.30
2024-02-17T06:44:10.130Z,0.33
2024-02-17T06:46:38.117Z,0.40
2024-02-17T06:49:06.226Z,0.30
2024-02-17T06:51:36.234Z,0.57
2024-02-17T06:54:04.248Z,0.70
2024-02-17T06:56:32.257Z,0.60
2024-02-17T06:59:00.556Z,0.40
2024-02-17T07:01:30.849Z,0.50
2024-02-17T07:03:58.978Z,0.70
2024-02-17T07:06:27.162Z,0.30
2024-02-17T07:08:55.793Z,0.83
2024-02-17T07:11:24.084Z,0.90
2024-02-17T07:13:52.116Z,1.37
2024-02-17T07:16:20.136Z,1.30
2024-02-17T07:18:50.906Z,1.03
2024-02-17T07:21:20.089Z,1.33
2024-02-17T07:23:48.061Z,1.23
2024-02-17T07:26:16.012Z,1.20
2024-02-17T07:28:43.972Z,2.20
2024-02-17T07:31:15.101Z,1.10
2024-02-17T07:33:44.968Z,2.40
2024-02-17T07:36:14.935Z,0.70
2024-02-17T07:38:42.988Z,0.77
2024-02-17T07:41:11.017Z,0.50
2024-02-17T07:43:39.044Z,0.50
2024-02-17T07:46:07.148Z,0.40
2024-02-17T07:48:35.224Z,0.33
2024-02-17T07:51:03.436Z,0.20
2024-02-17T07:53:32.935Z,0.50
2024-02-17T07:56:00.946Z,0.40
2024-02-17T07:58:28.986Z,0.40
2024-02-17T08:00:57.014Z,0.40
2024-02-17T08:03:25.418Z,0.50
2024-02-17T08:05:54.144Z,0.10
2024-02-17T08:08:22.542Z,0.10
2024-02-17T08:10:52.005Z,0.30
2024-02-17T08:13:22.267Z,4.03
2024-02-17T08:15:50.906Z,0.60
2024-02-17T08:18:19.274Z,0.40
2024-02-17T08:20:48.059Z,0.30
2024-02-17T08:23:16.350Z,0.30
2024-02-17T08:25:44.348Z,0.10
2024-02-17T08:28:13.818Z,0.20
2024-02-17T08:30:41.926Z,0.10
2024-02-17T08:33:10.124Z,0.10
2024-02-17T08:35:38.646Z,0.10
2024-02-17T08:38:06.703Z,0.10
2024-02-17T08:40:34.668Z,0.10
2024-02-17T08:43:03.233Z,0.10
2024-02-17T08:45:32.842Z,0.10
2024-02-17T08:48:00.985Z,0.10
2024-02-17T08:50:29.061Z,0.17
2024-02-17T08:52:57.113Z,0.20
2024-02-17T08:55:25.090Z,0.30
2024-02-17T08:57:53.073Z,0.10
2024-02-17T09:00:24.344Z,0.10
2024-02-17T09:02:53.881Z,0.43
2024-02-17T09:05:22.969Z,0.10
2024-02-17T09:07:51.084Z,0.13
2024-02-17T09:10:19.091Z,0.10
2024-02-17T09:12:47.186Z,0.30
2024-02-17T09:15:15.346Z,0.00
2024-02-17T09:17:44.028Z,0.10
2024-02-17T09:20:13.998Z,0.40
2024-02-17T09:22:42.030Z,0.00
2024-02-17T09:25:10.199Z,0.10
2024-02-17T09:27:38.270Z,0.00
2024-02-17T09:30:07.926Z,0.10
2024-02-17T09:32:35.999Z,0.10
2024-02-17T09:35:04.679Z,0.10
2024-02-17T09:37:34.515Z,0.10
2024-02-17T09:40:02.866Z,0.20
2024-02-17T09:42:30.974Z,0.30
2024-02-17T09:44:59.029Z,0.10
2024-02-17T09:47:27.958Z,0.10
2024-02-17T09:49:56.835Z,0.10
2024-02-17T09:52:25.436Z,0.10
2024-02-17T09:54:57.914Z,0.10
2024-02-17T09:57:29.898Z,0.00
2024-02-17T10:00:07.055Z,0.10
2024-02-17T10:02:39.926Z,0.00
2024-02-17T10:05:09.320Z,0.00
2024-02-17T10:07:49.207Z,0.00
2024-02-17T10:10:19.336Z,0.10
2024-02-17T10:12:49.992Z,0.00
2024-02-17T10:15:19.256Z,0.00
2024-02-17T10:17:47.439Z,0.00
2024-02-17T10:20:15.671Z,0.00
2024-02-17T10:22:45.031Z,0.10
2024-02-17T10:25:13.714Z,0.00
2024-02-17T10:27:44.784Z,0.10
2024-02-17T10:30:14.467Z,0.00
2024-02-17T10:32:43.225Z,0.00
2024-02-17T10:35:12.558Z,0.03
2024-02-17T10:37:41.721Z,0.10
2024-02-17T10:40:11.671Z,0.00
2024-02-17T10:42:39.850Z,0.20
2024-02-17T10:45:10.481Z,0.10
2024-02-17T10:47:39.932Z,0.00
2024-02-17T10:50:17.085Z,0.00
2024-02-17T10:52:48.015Z,0.00
2024-02-17T10:55:17.343Z,0.00
2024-02-17T10:57:54.926Z,0.10
2024-02-17T11:00:26.490Z,0.10
2024-02-17T11:02:57.239Z,0.00
2024-02-17T11:05:26.351Z,0.10
2024-02-17T11:07:54.883Z,0.20
2024-02-17T11:10:30.164Z,0.00
2024-02-17T11:12:59.707Z,0.10
2024-02-17T11:15:32.734Z,0.10
2024-02-17T11:18:03.209Z,0.10
2024-02-17T11:20:31.428Z,0.30
2024-02-17T11:23:02.521Z,0.00
2024-02-17T11:25:32.500Z,0.20
2024-02-17T11:28:01.060Z,0.30
2024-02-17T11:30:30.744Z,0.00
2024-02-17T11:32:59.655Z,0.00
2024-02-17T11:35:29.140Z,0.10
2024-02-17T11:37:58.100Z,0.10
2024-02-17T11:40:27.109Z,0.10
2024-02-17T11:42:56.734Z,0.10
2024-02-17T11:45:26.899Z,0.00
2024-02-17T11:47:57.363Z,0.20
2024-02-17T11:50:26.133Z,0.10
2024-02-17T11:53:01.807Z,0.10
2024-02-17T11:55:29.918Z,0.10
2024-02-17T11:57:58.782Z,0.10
2024-02-17T12:00:27.321Z,0.20
2024-02-17T12:02:57.406Z,0.10
2024-02-17T12:05:25.764Z,0.10
2024-02-17T12:07:53.751Z,0.10
2024-02-17T12:10:22.246Z,0.00
2024-02-17T12:12:50.405Z,0.10
2024-02-17T12:15:18.590Z,0.10
2024-02-17T12:17:46.857Z,0.10
2024-02-17T12:20:18.195Z,0.10
2024-02-17T12:22:48.992Z,0.10
2024-02-17T12:25:18.562Z,0.30
2024-02-17T12:27:49.262Z,0.10
2024-02-17T12:30:19.383Z,0.10
2024-02-17T12:32:48.277Z,0.40
2024-02-17T12:35:19.802Z,0.10
2024-02-17T12:37:49.210Z,0.20
2024-02-17T12:40:18.301Z,0.00
2024-02-17T12:42:51.300Z,0.20
2024-02-17T12:45:27.380Z,0.10
2024-02-17T12:47:56.073Z,0.13
2024-02-17T12:50:26.144Z,0.07
2024-02-17T12:52:56.025Z,0.13
2024-02-17T12:55:24.044Z,0.30
2024-02-17T12:57:53.034Z,0.10
2024-02-17T13:00:21.174Z,0.10
2024-02-17T13:02:49.192Z,0.10
2024-02-17T13:05:19.766Z,0.10
2024-02-17T13:07:49.881Z,0.20
2024-02-17T13:10:17.917Z,0.30
2024-02-17T13:12:45.940Z,0.00
2024-02-17T13:15:17.918Z,0.10
2024-02-17T13:17:46.180Z,0.23
2024-02-17T13:20:17.179Z,0.10
2024-02-17T13:22:46.485Z,0.17
2024-02-17T13:25:16.090Z,0.50
2024-02-17T13:27:44.315Z,0.40
2024-02-17T13:30:14.733Z,0.17
2024-02-17T13:32:45.408Z,0.10
2024-02-17T13:35:14.468Z,0.23
2024-02-17T13:37:44.209Z,0.10
2024-02-17T13:40:13.285Z,0.10
2024-02-17T13:42:42.944Z,0.17
2024-02-17T13:45:12.552Z,0.10
2024-02-17T13:47:40.950Z,0.13
2024-02-17T13:50:10.371Z,0.20
2024-02-17T13:52:38.640Z,0.13
2024-02-17T13:55:07.766Z,0.17
2024-02-17T13:57:35.752Z,0.10
2024-02-17T14:00:06.176Z,0.20
2024-02-17T14:02:34.835Z,0.10
2024-02-17T14:05:04.008Z,0.20
2024-02-17T14:07:32.024Z,0.20
2024-02-17T14:10:00.073Z,0.10
2024-02-17T14:12:28.245Z,0.10
2024-02-17T14:14:56.302Z,0.10
2024-02-17T14:17:28.496Z,0.20
2024-02-17T14:19:56.691Z,0.30
2024-02-17T14:22:24.995Z,0.10
2024-02-17T14:24:53.076Z,0.40
2024-02-17T14:27:21.772Z,0.20
2024-02-17T14:29:55.289Z,0.27
2024-02-17T14:32:23.687Z,0.20
2024-02-17T14:34:54.073Z,0.23
2024-02-17T14:37:22.361Z,0.23
2024-02-17T14:39:50.462Z,0.20
2024-02-17T14:42:19.061Z,0.20
2024-02-17T14:44:47.277Z,0.10
2024-02-17T14:47:15.361Z,0.20
2024-02-17T14:49:43.935Z,0.30
2024-02-17T14:52:13.465Z,0.30
2024-02-17T14:54:44.644Z,0.20
2024-02-17T14:57:14.169Z,0.33
2024-02-17T14:59:42.499Z,0.20
2024-02-17T15:02:13.355Z,0.20
2024-02-17T15:04:41.447Z,0.10
2024-02-17T15:07:09.814Z,0.20
2024-02-17T15:09:39.718Z,0.30
2024-02-17T15:12:10.223Z,0.10
2024-02-17T15:14:40.171Z,0.30
2024-02-17T15:17:08.253Z,0.20
2024-02-17T15:19:36.480Z,0.30
2024-02-17T15:22:04.627Z,0.10
2024-02-17T15:24:32.644Z,0.10
2024-02-17T15:27:02.056Z,0.10
2024-02-17T15:29:30.099Z,0.20
2024-02-17T15:31:58.048Z,0.10
2024-02-17T15:34:26.087Z,0.20
2024-02-17T15:36:54.117Z,0.20
2024-02-17T15:39:22.159Z,0.13
2024-02-17T15:41:50.200Z,0.20
2024-02-17T15:44:19.533Z,0.10
2024-02-17T15:46:47.522Z,0.10
2024-02-17T15:49:15.562Z,0.20
2024-02-17T15:51:43.783Z,0.10
2024-02-17T15:54:12.048Z,0.27
2024-02-17T15:56:40.053Z,0.20
2024-02-17T15:59:09.312Z,0.20
2024-02-17T16:01:40.282Z,0.00
2024-02-17T16:04:09.014Z,0.10
2024-02-17T16:06:37.362Z,0.10
2024-02-17T16:09:05.657Z,0.20
2024-02-17T16:11:33.987Z,0.20
2024-02-17T16:14:02.347Z,0.37
2024-02-17T16:16:31.544Z,0.20
2024-02-17T16:19:01.028Z,0.20
2024-02-17T16:21:29.330Z,0.83
2024-02-17T16:23:58.603Z,0.90
2024-02-17T16:26:27.396Z,1.53
2024-02-17T16:28:55.794Z,5.97
2024-02-17T16:31:23.843Z,0.40
2024-02-17T16:33:52.787Z,0.40
2024-02-17T16:36:22.957Z,5.03
2024-02-17T16:39:04.551Z,1.07
2024-02-17T16:41:33.009Z,46.80
2024-02-17T16:44:01.174Z,8.87
2024-02-17T16:46:30.662Z,23.17
2024-02-17T16:48:58.810Z,43.40
2024-02-17T16:51:29.240Z,45.63
2024-02-17T16:53:58.200Z,49.93
2024-02-17T16:56:27.235Z,20.70
2024-02-17T16:58:59.532Z,46.27
2024-02-17T17:01:27.810Z,55.93
2024-02-17T17:03:56.466Z,11.93
2024-02-17T17:06:24.569Z,3.97
2024-02-17T17:08:54.113Z,15.67
2024-02-17T17:11:23.752Z,22.70
2024-02-17T17:13:53.413Z,49.93
2024-02-17T17:16:21.732Z,87.20
2024-02-17T17:18:50.998Z,69.33
2024-02-17T17:21:19.782Z,35.73
2024-02-17T17:23:49.498Z,39.00
2024-02-17T17:26:30.347Z,58.83
2024-02-17T17:29:03.941Z,33.37
2024-02-17T17:31:32.245Z,25.67
2024-02-17T17:34:00.752Z,41.67
2024-02-17T17:36:28.953Z,45.10
2024-02-17T17:38:59.261Z,30.00
2024-02-17T17:41:29.505Z,5.57
2024-02-17T17:43:57.756Z,2.73
2024-02-17T17:46:25.871Z,17.27
2024-02-17T17:48:54.377Z,6.30
2024-02-17T17:51:22.531Z,7.73
2024-02-17T17:53:51.593Z,56.80
2024-02-17T17:56:19.617Z,60.97
2024-02-17T17:58:49.495Z,39.93
2024-02-17T18:01:18.002Z,61.63
2024-02-17T18:03:46.181Z,30.47
2024-02-17T18:06:17.214Z,43.70
2024-02-17T18:08:45.468Z,27.93
2024-02-17T18:11:13.758Z,19.73
2024-02-17T18:13:41.794Z,7.87
2024-02-17T18:16:11.340Z,8.70
2024-02-17T18:18:39.536Z,6.60
2024-02-17T18:21:07.882Z,2.97
2024-02-17T18:23:36.603Z,7.10
2024-02-17T18:26:06.608Z,2.60
2024-02-17T18:28:34.594Z,2.00
2024-02-17T18:31:02.712Z,3.67
2024-02-17T18:33:32.317Z,4.90
2024-02-17T18:36:00.361Z,3.70
2024-02-17T18:38:28.601Z,1.83
2024-02-17T18:40:56.635Z,1.00
2024-02-17T18:43:24.691Z,0.50
2024-02-17T18:45:55.218Z,0.50
2024-02-17T18:48:23.471Z,1.10
2024-02-17T18:50:52.931Z,3.00
2024-02-17T18:53:21.237Z,4.13
2024-02-17T18:55:49.272Z,12.87
2024-02-17T18:58:17.315Z,8.60
2024-02-17T19:00:45.493Z,5.70
2024-02-17T19:03:13.684Z,9.80
2024-02-17T19:05:41.858Z,12.07
2024-02-17T19:08:11.237Z,14.90
2024-02-17T19:10:39.464Z,12.77
2024-02-17T19:13:07.864Z,9.17
2024-02-17T19:15:36.237Z,15.73
2024-02-17T19:18:04.904Z,30.43
2024-02-17T19:20:34.092Z,31.03
2024-02-17T19:23:06.876Z,16.60
2024-02-17T19:25:36.809Z,13.80
2024-02-17T19:28:05.896Z,15.83
2024-02-17T19:30:33.943Z,14.00
2024-02-17T19:33:02.024Z,12.73
2024-02-17T19:35:30.028Z,31.30
2024-02-17T19:37:59.496Z,13.87
2024-02-17T19:40:27.514Z,37.70
2024-02-17T19:42:56.990Z,8.20
2024-02-17T19:45:25.106Z,1.90
2024-02-17T19:47:53.191Z,51.27
2024-02-17T19:50:21.210Z,25.67
2024-02-17T19:52:49.191Z,16.17
2024-02-17T19:55:19.561Z,5.47
2024-02-17T19:57:52.871Z,2.50
2024-02-17T20:00:23.245Z,1.20
2024-02-17T20:02:54.792Z,4.57
2024-02-17T20:05:23.804Z,15.00
2024-02-17T20:07:51.750Z,11.57
2024-02-17T20:10:19.779Z,12.63
2024-02-17T20:12:47.858Z,14.70
2024-02-17T20:15:19.243Z,15.37
2024-02-17T20:17:48.894Z,9.57
2024-02-17T20:20:19.992Z,4.83
2024-02-17T20:22:48.211Z,1.77
2024-02-17T20:25:16.408Z,1.57
2024-02-17T20:27:44.597Z,2.10
2024-02-17T20:30:12.992Z,2.63
2024-02-17T20:32:40.988Z,1.83
2024-02-17T20:35:11.011Z,2.47
2024-02-17T20:37:39.086Z,1.90
2024-02-17T20:40:09.791Z,3.50
2024-02-17T20:42:38.172Z,2.20
2024-02-17T20:45:08.477Z,3.03
2024-02-17T20:47:36.602Z,2.63
2024-02-17T20:50:05.511Z,2.23
2024-02-17T20:52:34.995Z,2.40
2024-02-17T20:55:04.299Z,2.87
2024-02-17T20:57:32.369Z,3.60
2024-02-17T21:00:00.448Z,1.40
2024-02-17T21:02:30.753Z,1.17
2024-02-17T21:05:00.636Z,1.07
2024-02-17T21:07:28.758Z,1.30
2024-02-17T21:09:58.205Z,1.00
2024-02-17T21:12:27.049Z,1.00
2024-02-17T21:14:55.207Z,1.03
2024-02-17T21:17:23.533Z,1.40
2024-02-17T21:19:51.641Z,2.50
2024-02-17T21:22:19.672Z,3.53
2024-02-17T21:24:47.895Z,5.10
2024-02-17T21:27:17.279Z,4.50
2024-02-17T21:29:45.266Z,4.83
2024-02-17T21:32:13.631Z,4.93
2024-02-17T21:34:42.092Z,1.93
2024-02-17T21:37:10.165Z,1.53
2024-02-17T21:39:38.266Z,1.40
2024-02-17T21:42:06.886Z,1.67
2024-02-17T21:44:36.284Z,2.20
2024-02-17T21:47:04.355Z,3.60
2024-02-17T21:49:32.995Z,5.03
2024-02-17T21:52:01.163Z,4.03
2024-02-17T21:54:29.237Z,2.40
2024-02-17T21:56:57.304Z,2.60
2024-02-17T21:59:26.042Z,1.70
2024-02-17T22:02:01.882Z,2.10
2024-02-17T22:04:33.521Z,2.17
2024-02-17T22:07:02.203Z,2.27
2024-02-17T22:09:31.450Z,1.80
2024-02-17T22:11:59.724Z,2.00
2024-02-17T22:14:27.744Z,3.70
2024-02-17T22:16:57.120Z,3.43
2024-02-17T22:19:25.258Z,4.70
2024-02-17T22:21:53.627Z,5.90
2024-02-17T22:24:21.958Z,8.77
2024-02-17T22:26:50.114Z,9.57
2024-02-17T22:29:18.124Z,9.37
2024-02-17T22:31:46.165Z,11.57
2024-02-17T22:34:16.628Z,8.20
2024-02-17T22:36:45.268Z,7.03
2024-02-17T22:39:13.665Z,5.70
2024-02-17T22:41:41.666Z,2.13
2024-02-17T22:44:09.851Z,1.50
2024-02-17T22:46:37.858Z,1.20
2024-02-17T22:49:05.909Z,0.90
2024-02-17T22:51:36.099Z,1.20
2024-02-17T22:54:04.167Z,1.43
2024-02-17T22:56:33.433Z,1.10
2024-02-17T22:59:01.466Z,1.00
2024-02-17T23:01:29.495Z,0.90
2024-02-17T23:03:57.745Z,1.10
2024-02-17T23:06:25.880Z,1.10
2024-02-17T23:08:56.638Z,1.00
2024-02-17T23:11:24.757Z,1.03
2024-02-17T23:13:53.256Z,1.40
2024-02-17T23:16:21.334Z,1.87
2024-02-17T23:18:49.512Z,1.20
2024-02-17T23:21:17.630Z,1.20
2024-02-17T23:23:45.616Z,1.17
2024-02-17T23:26:15.010Z,1.13
2024-02-17T23:28:43.010Z,1.10
2024-02-17T23:31:11.064Z,1.10
2024-02-17T23:33:40.864Z,1.23
2024-02-17T23:36:12.622Z,1.10
2024-02-17T23:38:40.683Z,1.10
2024-02-17T23:41:08.613Z,1.50
2024-02-17T23:43:38.320Z,1.80
2024-02-17T23:46:07.769Z,3.63
2024-02-17T23:48:35.946Z,8.87
2024-02-17T23:51:04.065Z,13.70
2024-02-17T23:53:32.432Z,3.60
2024-02-17T23:56:00.487Z,16.10
2024-02-17T23:58:28.489Z,23.80
